CheckWX is a tool to help pilots better visualize weather data.  It is not intended as a substitute for an official pre-flight weather briefing.

16:36:23 UTC

KAFO METAR
Afton Municipal Airport
Afton, Wyoming, USA
Current

21 mins ago

KAFO 221615Z AUTO 00000KT 10SM CLR 21/10 A3031 RMK AO2
Observed
Jul-22 @ 16:15 UTC
Visibility
10 SM
Flight Rules
VFR
Cloud Levels
  • Clear skies
Temperature
21°C / 70°F
Dewpoint
10°C / 50°F
Humidity
50%
Altimeter
30.31" Hg
Pressure
1026.42 hPa
Previous

41 mins ago

KAFO 221555Z AUTO 00000KT 10SM CLR 19/10 A3031 RMK AO2
Observed
Jul-22 @ 15:55 UTC
Visibility
10 SM
Flight Rules
VFR
Cloud Levels
  • Clear skies
Temperature
19°C / 66°F
Dewpoint
10°C / 50°F
Humidity
56%
Altimeter
30.31" Hg
Pressure
1026.42 hPa
Previous

1 hour ago

KAFO 221535Z AUTO 31003KT 10SM CLR 19/09 A3032 RMK AO2
Observed
Jul-22 @ 15:35 UTC
Wind
  • 310° at 3 KTS
Visibility
10 SM
Flight Rules
VFR
Cloud Levels
  • Clear skies
Temperature
19°C / 66°F
Dewpoint
C / 48°F
Humidity
52%
Altimeter
30.32" Hg
Pressure
1026.72 hPa